Time;durP1;ratioP1;P1;durP2;ratioP2;P2;SDS_P1;SDS_P2;PMS_P1;PMS_P2;Temp;Humidity;BMP_temperature;BMP_pressure;BME280_temperature;BME280_humidity;BME280_pressure;Samples;Min_cycle;Max_cycle;Signal;HPM_P1;HPM_P2
2023/07/24 00:01:05;;;;;;;5.20;3.55;;;20.30;99.90;;;;;;4150806;28;20046;-49
2023/07/24 00:03:08;;;;;;;7.30;4.03;;;20.20;99.90;;;;;;4138830;28;20046;-51
2023/07/24 00:05:11;;;;;;;5.72;3.60;;;20.30;99.90;;;;;;4134431;28;20050;-49
2023/07/24 00:07:13;;;;;;;8.15;3.80;;;20.20;99.90;;;;;;4133851;28;20466;-49
2023/07/24 00:09:15;;;;;;;7.63;3.88;;;20.30;99.90;;;;;;4134191;28;20050;-49
2023/07/24 00:11:17;;;;;;;7.72;3.75;;;20.30;99.90;;;;;;4134559;28;20145;-49
2023/07/24 00:13:20;;;;;;;7.38;4.10;;;20.30;99.90;;;;;;4134141;28;20165;-49
2023/07/24 00:15:22;;;;;;;7.95;3.88;;;20.30;99.90;;;;;;4134368;28;20046;-49
2023/07/24 00:17:24;;;;;;;7.72;3.90;;;20.20;99.90;;;;;;4133649;28;20046;-49
2023/07/24 00:19:26;;;;;;;6.57;3.58;;;20.30;99.90;;;;;;4134323;28;20047;-48
2023/07/24 00:21:30;;;;;;;5.97;3.67;;;20.30;99.90;;;;;;4134695;28;20050;-49
2023/07/24 00:23:32;;;;;;;8.00;3.70;;;20.30;99.90;;;;;;4134223;28;20046;-49
2023/07/24 00:25:34;;;;;;;8.52;3.83;;;20.20;99.90;;;;;;4134329;28;20097;-49
2023/07/24 00:27:36;;;;;;;8.18;3.90;;;20.20;99.90;;;;;;4133088;28;20261;-49
2023/07/24 00:29:38;;;;;;;5.35;3.60;;;20.30;99.90;;;;;;4116581;28;20137;-49
2023/07/24 00:31:41;;;;;;;5.43;3.70;;;20.30;99.90;;;;;;4134362;28;20513;-49
2023/07/24 00:33:43;;;;;;;5.53;3.63;;;20.30;99.90;;;;;;4116891;28;20113;-49
2023/07/24 00:35:45;;;;;;;6.60;3.58;;;20.20;99.90;;;;;;4134136;28;20077;-48
2023/07/24 00:37:48;;;;;;;5.88;3.53;;;20.30;99.90;;;;;;4133277;28;20410;-49
2023/07/24 00:39:50;;;;;;;6.82;3.75;;;20.20;99.90;;;;;;4133889;28;20133;-49
2023/07/24 00:41:52;;;;;;;7.35;3.88;;;20.30;99.90;;;;;;4133789;28;20490;-48
2023/07/24 00:43:54;;;;;;;6.72;3.42;;;20.30;99.90;;;;;;4133833;28;20050;-48
2023/07/24 00:45:56;;;;;;;6.45;3.42;;;20.30;99.90;;;;;;4134065;28;20397;-49
2023/07/24 00:48:00;;;;;;;8.70;3.72;;;20.30;99.90;;;;;;4133147;28;20074;-49
2023/07/24 00:50:02;;;;;;;6.70;3.35;;;20.20;99.90;;;;;;4149156;28;20054;-49
2023/07/24 00:52:05;;;;;;;6.20;3.53;;;20.20;99.90;;;;;;4149126;28;20405;-49
2023/07/24 00:54:09;;;;;;;6.55;3.67;;;20.30;99.90;;;;;;4132445;28;20073;-49
2023/07/24 00:56:11;;;;;;;6.10;3.83;;;20.20;99.90;;;;;;4149086;28;20085;-49
2023/07/24 00:58:16;;;;;;;5.00;3.60;;;20.30;99.90;;;;;;4148851;28;20042;-50
2023/07/24 01:00:18;;;;;;;5.45;3.70;;;20.20;99.90;;;;;;4149699;28;20108;-54
2023/07/24 01:02:20;;;;;;;7.57;3.42;;;20.30;99.90;;;;;;4144455;28;20096;-53
2023/07/24 01:04:23;;;;;;;4.18;3.08;;;20.30;99.90;;;;;;4133979;28;20129;-52
2023/07/24 01:06:25;;;;;;;5.72;3.50;;;20.30;99.90;;;;;;4133548;28;20061;-52
2023/07/24 01:08:27;;;;;;;5.70;3.35;;;20.30;99.90;;;;;;4133116;28;20149;-52
2023/07/24 01:10:31;;;;;;;6.43;3.88;;;20.30;99.90;;;;;;4133434;28;20054;-52
2023/07/24 01:12:39;;;;;;;5.93;4.00;;;20.30;99.90;;;;;;4133580;28;20074;-51
2023/07/24 01:14:46;;;;;;;8.82;3.65;;;20.30;99.90;;;;;;4133416;28;20054;-53
2023/07/24 01:16:50;;;;;;;8.63;3.88;;;20.30;99.90;;;;;;4133394;28;20458;-53
2023/07/24 01:18:55;;;;;;;5.90;3.53;;;20.30;99.90;;;;;;4133019;28;20050;-57
2023/07/24 01:20:58;;;;;;;5.15;3.65;;;20.30;99.90;;;;;;4133371;28;20053;-49
2023/07/24 01:23:23;;;;;;;5.68;3.42;;;20.30;99.90;;;;;;4133316;28;20074;-49
2023/07/24 01:25:36;;;;;;;5.90;3.78;;;20.40;99.90;;;;;;4132980;28;20053;-49
2023/07/24 01:27:42;;;;;;;7.60;3.92;;;20.40;99.90;;;;;;4132611;28;20502;-50
2023/07/24 01:29:45;;;;;;;8.65;3.90;;;20.40;99.90;;;;;;4133423;28;20425;-53
2023/07/24 01:31:47;;;;;;;7.43;3.35;;;20.40;99.90;;;;;;4133168;28;20046;-53
2023/07/24 01:33:49;;;;;;;9.75;4.07;;;20.40;99.90;;;;;;4115998;28;20059;-52
2023/07/24 01:35:56;;;;;;;5.45;4.10;;;20.40;99.90;;;;;;4133457;28;20054;-60
2023/07/24 01:38:04;;;;;;;5.60;3.95;;;20.30;99.90;;;;;;4133586;28;20070;-53
2023/07/24 01:40:08;;;;;;;7.18;4.32;;;20.30;99.70;;;;;;4116199;28;20043;-58
2023/07/24 01:42:10;;;;;;;7.72;4.07;;;20.40;99.80;;;;;;4133403;28;20047;-52
2023/07/24 01:44:14;;;;;;;7.10;3.72;;;20.30;99.60;;;;;;4133000;28;20056;-52
2023/07/24 01:46:16;;;;;;;6.82;3.90;;;20.40;99.80;;;;;;4115891;28;20069;-52
2023/07/24 01:48:18;;;;;;;9.52;3.55;;;20.30;99.90;;;;;;4116307;28;20086;-52
2023/07/24 01:50:20;;;;;;;7.32;3.63;;;20.30;99.90;;;;;;4149057;28;20046;-52
2023/07/24 01:52:22;;;;;;;6.53;3.90;;;20.30;99.90;;;;;;4149038;28;20124;-52
2023/07/24 01:54:24;;;;;;;13.15;4.25;;;20.30;99.90;;;;;;4148688;28;20049;-53
2023/07/24 01:56:26;;;;;;;9.10;3.95;;;20.20;99.90;;;;;;4147797;28;20049;-53
2023/07/24 01:58:29;;;;;;;7.00;4.13;;;20.30;99.90;;;;;;4148553;28;20052;-52
2023/07/24 02:00:32;;;;;;;7.53;3.85;;;20.30;99.90;;;;;;4148678;28;20070;-52
2023/07/24 02:02:35;;;;;;;6.10;3.72;;;20.30;99.90;;;;;;4141482;28;20046;-52
2023/07/24 02:04:37;;;;;;;7.43;3.63;;;20.30;99.90;;;;;;4132188;28;20478;-52
2023/07/24 02:06:39;;;;;;;9.75;4.30;;;20.30;99.90;;;;;;4132721;28;20050;-52
2023/07/24 02:08:42;;;;;;;6.07;4.07;;;20.20;99.90;;;;;;4131707;28;20050;-52
2023/07/24 02:10:47;;;;;;;7.10;3.78;;;20.20;99.90;;;;;;4132246;28;20085;-52
2023/07/24 02:12:49;;;;;;;6.60;3.85;;;20.10;99.90;;;;;;4132407;28;20067;-52
2023/07/24 02:14:53;;;;;;;5.97;3.67;;;20.00;99.90;;;;;;4132503;28;20112;-52
2023/07/24 02:16:56;;;;;;;8.07;3.95;;;20.10;99.90;;;;;;4132500;28;20046;-52
2023/07/24 02:18:58;;;;;;;8.63;4.13;;;20.10;99.90;;;;;;4131887;28;20046;-53
2023/07/24 02:21:00;;;;;;;6.03;3.95;;;20.00;99.90;;;;;;4132368;28;20073;-52
2023/07/24 02:23:02;;;;;;;7.18;4.03;;;20.00;99.90;;;;;;4132718;28;20054;-53
2023/07/24 02:25:05;;;;;;;10.77;3.95;;;20.00;99.90;;;;;;4132013;28;20050;-52
2023/07/24 02:27:07;;;;;;;6.70;3.53;;;20.00;99.90;;;;;;4132273;28;20084;-52
2023/07/24 02:29:10;;;;;;;7.10;4.15;;;20.00;99.90;;;;;;4131641;28;20072;-52
2023/07/24 02:31:12;;;;;;;8.05;4.45;;;20.00;99.90;;;;;;4132117;28;20043;-50
2023/07/24 02:33:15;;;;;;;6.13;3.72;;;20.00;99.90;;;;;;4132189;28;20050;-50
2023/07/24 02:35:18;;;;;;;8.00;4.20;;;20.00;99.90;;;;;;4132113;28;20046;-50
2023/07/24 02:37:20;;;;;;;6.63;4.13;;;19.90;99.90;;;;;;4131879;28;20054;-50
2023/07/24 02:39:22;;;;;;;7.07;4.15;;;20.00;99.90;;;;;;4131619;28;20054;-50
2023/07/24 02:41:24;;;;;;;6.18;3.60;;;19.90;99.90;;;;;;4115040;28;20085;-50
2023/07/24 02:43:26;;;;;;;11.52;4.93;;;19.90;99.90;;;;;;4132099;28;20050;-50
2023/07/24 02:45:28;;;;;;;5.45;3.78;;;19.90;99.90;;;;;;4114752;28;20483;-50
2023/07/24 02:47:30;;;;;;;6.22;3.97;;;19.90;99.90;;;;;;4131550;28;20042;-50
2023/07/24 02:49:34;;;;;;;7.13;4.13;;;19.90;99.90;;;;;;4131754;28;20108;-50
2023/07/24 02:51:36;;;;;;;6.88;4.50;;;19.90;99.90;;;;;;4132031;28;20077;-50
2023/07/24 02:53:38;;;;;;;7.10;3.53;;;19.90;99.90;;;;;;4131624;28;20064;-50
2023/07/24 02:55:43;;;;;;;5.35;4.20;;;19.90;99.90;;;;;;4132003;28;20413;-50
2023/07/24 02:57:45;;;;;;;8.25;4.20;;;19.90;99.90;;;;;;4131667;28;20053;-50
2023/07/24 02:59:47;;;;;;;7.00;4.25;;;19.90;99.90;;;;;;4131639;28;20054;-50
2023/07/24 03:01:50;;;;;;;7.13;4.15;;;19.90;99.90;;;;;;4131993;28;20520;-50
2023/07/24 03:03:52;;;;;;;8.25;4.25;;;19.80;99.90;;;;;;4131836;28;20235;-50
2023/07/24 03:05:55;;;;;;;11.38;4.53;;;19.90;99.90;;;;;;4131950;28;20409;-50
2023/07/24 03:07:57;;;;;;;4.15;3.75;;;19.80;99.90;;;;;;4131068;28;20073;-50
2023/07/24 03:09:59;;;;;;;9.38;4.50;;;19.70;99.90;;;;;;4131758;28;20056;-51
2023/07/24 03:12:02;;;;;;;11.02;5.07;;;19.80;99.90;;;;;;4131985;28;20085;-50
2023/07/24 03:14:04;;;;;;;6.65;4.18;;;19.70;99.90;;;;;;4131792;28;20046;-50
2023/07/24 03:16:06;;;;;;;8.75;4.68;;;19.70;99.90;;;;;;4131187;28;20494;-49
2023/07/24 03:18:08;;;;;;;7.80;4.93;;;19.60;99.90;;;;;;4113870;28;20409;-50
2023/07/24 03:20:16;;;;;;;7.38;4.50;;;19.60;99.90;;;;;;4131776;28;20077;-50
2023/07/24 03:22:20;;;;;;;9.55;5.03;;;19.60;99.90;;;;;;4131323;28;20053;-50
2023/07/24 03:24:22;;;;;;;8.45;4.78;;;19.50;99.90;;;;;;4131818;28;20207;-55
2023/07/24 03:26:25;;;;;;;10.23;5.22;;;19.40;99.90;;;;;;4131816;28;20047;-50
2023/07/24 03:28:27;;;;;;;10.15;4.78;;;19.30;99.90;;;;;;4130919;28;20049;-49
2023/07/24 03:30:29;;;;;;;9.20;4.18;;;19.30;99.90;;;;;;4131703;28;20469;-49
2023/07/24 03:32:31;;;;;;;8.27;4.53;;;19.20;99.90;;;;;;4131556;28;20057;-49
2023/07/24 03:34:33;;;;;;;11.20;4.70;;;19.20;99.90;;;;;;4131575;28;20050;-50
2023/07/24 03:36:36;;;;;;;9.20;4.60;;;19.20;99.90;;;;;;4131316;28;20046;-50
2023/07/24 03:38:40;;;;;;;8.02;4.68;;;19.20;99.90;;;;;;4130804;28;20057;-49
2023/07/24 03:40:42;;;;;;;7.93;4.68;;;19.20;99.90;;;;;;4131382;28;20069;-50
2023/07/24 03:42:44;;;;;;;7.30;4.43;;;19.20;99.90;;;;;;4131678;28;20061;-50
2023/07/24 03:44:46;;;;;;;8.00;4.40;;;19.10;99.90;;;;;;4114329;28;20119;-49
2023/07/24 03:46:48;;;;;;;8.15;4.88;;;19.00;99.90;;;;;;4131421;28;20046;-49
2023/07/24 03:48:50;;;;;;;6.90;4.50;;;19.00;99.90;;;;;;4130661;28;20056;-51
2023/07/24 03:50:58;;;;;;;7.68;4.28;;;19.00;99.90;;;;;;4129755;28;20046;-50
2023/07/24 03:53:00;;;;;;;9.40;5.13;;;19.00;99.90;;;;;;4131371;28;20048;-50
2023/07/24 03:55:05;;;;;;;8.52;4.95;;;19.00;99.90;;;;;;4131482;28;20058;-50
2023/07/24 03:57:07;;;;;;;7.32;4.25;;;19.00;99.90;;;;;;4131523;28;20093;-50
2023/07/24 03:59:09;;;;;;;6.40;4.35;;;19.00;99.90;;;;;;4130504;28;20506;-50
2023/07/24 04:01:11;;;;;;;8.95;4.80;;;19.00;99.90;;;;;;4131313;28;20085;-50
2023/07/24 04:03:13;;;;;;;8.75;5.03;;;18.90;99.90;;;;;;4131324;28;20097;-50
2023/07/24 04:05:17;;;;;;;6.07;4.47;;;18.90;99.90;;;;;;4113766;28;20051;-50
2023/07/24 04:07:19;;;;;;;8.40;4.47;;;18.90;99.90;;;;;;4131133;28;20049;-51
2023/07/24 04:09:21;;;;;;;6.47;4.38;;;18.90;99.90;;;;;;4113317;28;20207;-50
2023/07/24 04:11:24;;;;;;;7.10;4.22;;;18.90;99.90;;;;;;4131102;28;20070;-50
2023/07/24 04:13:27;;;;;;;8.20;4.75;;;18.90;99.90;;;;;;4131495;28;20046;-50
2023/07/24 04:15:29;;;;;;;8.63;4.30;;;18.90;99.90;;;;;;4131204;28;20078;-50
2023/07/24 04:17:32;;;;;;;9.68;4.75;;;18.90;99.90;;;;;;4130630;28;20134;-49
2023/07/24 04:19:34;;;;;;;5.82;4.32;;;18.80;99.90;;;;;;4130271;28;20047;-50
2023/07/24 04:21:36;;;;;;;8.65;5.15;;;18.80;99.90;;;;;;4131213;28;20069;-50
2023/07/24 04:23:38;;;;;;;8.98;4.53;;;18.80;99.90;;;;;;4131240;28;20054;-49
2023/07/24 04:25:40;;;;;;;7.03;4.47;;;18.90;99.90;;;;;;4131123;28;20121;-49
2023/07/24 04:27:44;;;;;;;7.03;4.35;;;18.80;99.90;;;;;;4132993;28;20053;-50
2023/07/24 04:29:48;;;;;;;7.45;3.75;;;18.90;99.90;;;;;;4133792;28;20050;-50
2023/07/24 04:31:50;;;;;;;7.82;3.92;;;18.80;99.90;;;;;;4116837;28;20051;-49
2023/07/24 04:33:52;;;;;;;5.47;4.22;;;18.80;99.90;;;;;;4134086;28;20152;-50
2023/07/24 04:35:54;;;;;;;7.70;4.18;;;18.80;99.90;;;;;;4116741;28;20417;-50
2023/07/24 04:37:57;;;;;;;7.57;4.22;;;18.70;99.90;;;;;;4134444;28;20054;-50
2023/07/24 04:39:59;;;;;;;5.00;3.95;;;18.70;99.90;;;;;;4135290;28;20413;-50
2023/07/24 04:42:01;;;;;;;7.05;3.78;;;18.70;99.90;;;;;;4135413;28;20134;-52
2023/07/24 04:44:05;;;;;;;8.00;4.03;;;18.70;99.90;;;;;;4134638;28;20100;-50
2023/07/24 04:46:07;;;;;;;7.90;3.90;;;18.70;99.90;;;;;;4133896;28;20050;-49
2023/07/24 04:48:09;;;;;;;5.18;3.65;;;18.70;99.90;;;;;;4132887;28;20046;-49
2023/07/24 04:50:11;;;;;;;6.90;3.65;;;18.70;99.90;;;;;;4133551;28;20129;-49
2023/07/24 04:52:13;;;;;;;5.63;3.67;;;18.70;99.90;;;;;;4133809;28;20050;-48
2023/07/24 04:54:15;;;;;;;7.20;3.70;;;18.70;99.90;;;;;;4133746;28;20042;-49
2023/07/24 04:56:17;;;;;;;6.03;3.67;;;18.70;99.90;;;;;;4133793;28;20046;-49
2023/07/24 04:58:19;;;;;;;5.82;3.42;;;18.80;99.90;;;;;;4133331;28;20443;-49
2023/07/24 05:00:22;;;;;;;7.63;3.90;;;18.80;99.90;;;;;;4145260;28;20057;-51
2023/07/24 05:02:24;;;;;;;6.22;3.05;;;18.80;99.90;;;;;;4143904;28;20035;-51
2023/07/24 05:04:26;;;;;;;3.67;3.38;;;18.90;99.90;;;;;;4133463;28;20057;-51
2023/07/24 05:06:28;;;;;;;4.85;3.03;;;18.80;99.90;;;;;;4133549;28;20042;-51
2023/07/24 05:08:31;;;;;;;5.90;3.72;;;18.80;99.90;;;;;;4132873;28;20053;-51
2023/07/24 05:10:35;;;;;;;4.57;3.10;;;18.90;99.90;;;;;;4133474;28;20054;-51
2023/07/24 05:12:37;;;;;;;3.50;3.20;;;18.90;99.90;;;;;;4116251;28;20138;-51
2023/07/24 05:14:39;;;;;;;7.22;3.10;;;18.80;99.90;;;;;;4116190;28;20077;-51
2023/07/24 05:16:42;;;;;;;4.32;2.83;;;18.90;99.90;;;;;;4133614;28;20046;-51
2023/07/24 05:18:44;;;;;;;6.72;3.15;;;18.90;99.90;;;;;;4132366;28;20046;-52
2023/07/24 05:20:48;;;;;;;6.20;2.92;;;19.00;99.90;;;;;;4133631;28;20046;-51
2023/07/24 05:22:50;;;;;;;3.57;2.67;;;19.00;99.90;;;;;;4133218;28;20050;-51
2023/07/24 05:24:52;;;;;;;4.18;2.88;;;19.10;99.90;;;;;;4135198;28;20494;-52
2023/07/24 05:26:55;;;;;;;3.35;2.70;;;19.10;99.90;;;;;;4134668;28;20042;-52
2023/07/24 05:28:57;;;;;;;3.70;2.65;;;19.20;99.90;;;;;;4134355;28;20074;-53
2023/07/24 05:31:00;;;;;;;6.63;2.80;;;19.20;99.90;;;;;;4133738;28;20510;-53
2023/07/24 05:33:04;;;;;;;2.80;2.30;;;19.20;99.90;;;;;;4133181;28;20076;-57
2023/07/24 05:35:08;;;;;;;5.47;2.70;;;19.20;99.90;;;;;;4133450;28;20113;-52
2023/07/24 05:37:11;;;;;;;4.90;2.40;;;19.20;99.90;;;;;;4133445;28;20046;-51
2023/07/24 05:39:13;;;;;;;3.13;2.30;;;19.20;99.90;;;;;;4114416;28;20077;-51
2023/07/24 05:41:15;;;;;;;3.78;2.20;;;19.10;99.90;;;;;;4115925;28;20054;-51
2023/07/24 05:43:17;;;;;;;4.45;2.60;;;19.20;99.90;;;;;;4132952;28;20053;-51
2023/07/24 05:45:19;;;;;;;2.67;1.90;;;19.30;99.90;;;;;;4132917;28;20050;-51
2023/07/24 05:47:21;;;;;;;2.83;2.30;;;19.40;99.90;;;;;;4132910;28;20514;-49
2023/07/24 05:49:26;;;;;;;4.10;2.30;;;19.50;99.90;;;;;;4142662;28;20060;-48
2023/07/24 05:51:28;;;;;;;4.70;2.10;;;19.50;99.90;;;;;;4149396;28;20046;-50
2023/07/24 05:53:30;;;;;;;2.80;1.88;;;19.50;99.90;;;;;;4149079;28;20077;-49
2023/07/24 05:55:32;;;;;;;4.32;2.08;;;19.60;99.90;;;;;;4149264;28;20050;-53
2023/07/24 05:57:34;;;;;;;3.95;2.20;;;19.70;99.90;;;;;;4147964;28;20177;-53
2023/07/24 05:59:36;;;;;;;2.72;2.10;;;19.70;99.90;;;;;;4148076;28;20399;-53
2023/07/24 06:01:38;;;;;;;2.33;1.98;;;19.70;99.90;;;;;;4148630;28;20056;-53
2023/07/24 06:03:41;;;;;;;3.65;2.15;;;19.70;99.90;;;;;;4132846;28;20050;-52
2023/07/24 06:05:44;;;;;;;2.90;2.00;;;19.80;99.90;;;;;;4132812;28;20433;-53
2023/07/24 06:07:47;;;;;;;3.20;2.20;;;19.80;99.90;;;;;;4132684;28;20153;-51
2023/07/24 06:09:49;;;;;;;3.28;1.90;;;19.70;99.90;;;;;;4131992;28;20105;-51
2023/07/24 06:11:51;;;;;;;2.92;2.03;;;19.60;99.90;;;;;;4132002;28;20054;-51
2023/07/24 06:13:53;;;;;;;2.22;1.95;;;19.50;99.90;;;;;;4132515;28;20047;-50
2023/07/24 06:15:55;;;;;;;3.67;2.00;;;19.50;99.90;;;;;;4132216;28;20047;-52
2023/07/24 06:17:58;;;;;;;3.50;2.28;;;19.50;99.90;;;;;;4132541;28;20050;-50
2023/07/24 06:20:00;;;;;;;4.60;2.08;;;19.50;99.90;;;;;;4131899;28;20122;-50
2023/07/24 06:22:04;;;;;;;4.30;1.98;;;19.50;99.90;;;;;;4132737;28;20073;-50
2023/07/24 06:24:06;;;;;;;3.03;2.07;;;19.50;99.90;;;;;;4132659;28;20042;-51
2023/07/24 06:26:08;;;;;;;2.17;1.83;;;19.50;99.90;;;;;;4132388;28;20042;-51
2023/07/24 06:28:10;;;;;;;3.72;1.90;;;19.40;99.90;;;;;;4131966;28;20466;-51
2023/07/24 06:30:12;;;;;;;4.70;1.92;;;19.40;99.90;;;;;;4114422;28;20046;-51
2023/07/24 06:32:17;;;;;;;3.50;2.35;;;19.50;99.90;;;;;;4132413;28;20089;-50
2023/07/24 06:34:19;;;;;;;3.05;1.70;;;19.80;99.90;;;;;;4132439;28;20449;-50
2023/07/24 06:36:21;;;;;;;3.08;1.70;;;19.90;99.90;;;;;;4132333;28;20073;-51
2023/07/24 06:38:25;;;;;;;5.60;2.13;;;20.00;99.20;;;;;;4131555;28;20466;-51
2023/07/24 06:40:27;;;;;;;2.58;1.70;;;19.90;98.50;;;;;;4132127;28;20513;-51
2023/07/24 06:42:29;;;;;;;4.30;2.08;;;20.00;98.60;;;;;;4132110;28;20050;-51
2023/07/24 06:44:31;;;;;;;6.85;1.85;;;20.00;98.30;;;;;;4131658;28;20133;-52
2023/07/24 06:46:33;;;;;;;3.72;1.90;;;20.00;97.40;;;;;;4132071;28;20042;-51
2023/07/24 06:48:35;;;;;;;4.70;1.67;;;20.00;98.10;;;;;;4135399;28;20090;-54
2023/07/24 06:50:37;;;;;;;5.78;2.00;;;20.00;97.80;;;;;;4148206;28;20405;-53
2023/07/24 06:52:39;;;;;;;2.25;1.77;;;20.20;97.30;;;;;;4148089;28;20057;-53
2023/07/24 06:54:43;;;;;;;5.50;1.80;;;20.10;97.40;;;;;;4148251;28;20076;-53
2023/07/24 06:56:45;;;;;;;5.75;2.05;;;20.10;96.90;;;;;;4148178;28;20633;-51
2023/07/24 06:58:47;;;;;;;3.97;1.92;;;20.10;96.60;;;;;;4147378;28;20421;-53
2023/07/24 07:00:49;;;;;;;5.40;1.77;;;20.10;97.10;;;;;;4147963;28;20054;-50
2023/07/24 07:02:51;;;;;;;2.30;1.48;;;19.90;96.90;;;;;;4137829;28;20072;-50
2023/07/24 07:04:53;;;;;;;4.75;1.77;;;19.90;96.70;;;;;;4132046;28;20046;-50
2023/07/24 07:06:55;;;;;;;3.70;1.85;;;19.90;96.10;;;;;;4132215;28;20101;-50
2023/07/24 07:08:58;;;;;;;2.53;1.48;;;19.90;96.50;;;;;;4131697;28;20501;-49
2023/07/24 07:11:01;;;;;;;2.70;1.75;;;19.90;96.70;;;;;;4132162;28;20492;-52
2023/07/24 07:13:03;;;;;;;4.13;1.70;;;19.90;96.50;;;;;;4132120;28;20046;-49
2023/07/24 07:15:07;;;;;;;3.20;1.70;;;20.00;97.00;;;;;;4131426;28;20077;-50
2023/07/24 07:17:09;;;;;;;4.38;1.95;;;20.20;96.70;;;;;;4131759;28;20050;-50
2023/07/24 07:19:11;;;;;;;4.55;2.13;;;20.20;96.60;;;;;;4130962;28;20580;-49
2023/07/24 07:21:13;;;;;;;3.38;1.70;;;20.30;96.40;;;;;;4131913;28;20482;-48
2023/07/24 07:23:15;;;;;;;6.85;2.08;;;20.30;95.90;;;;;;4131908;28;20053;-51
2023/07/24 07:25:18;;;;;;;3.33;2.00;;;20.40;96.10;;;;;;4131961;28;20413;-51
2023/07/24 07:27:21;;;;;;;5.13;1.70;;;20.50;96.10;;;;;;4131919;28;20049;-51
2023/07/24 07:29:23;;;;;;;3.65;1.77;;;20.70;96.00;;;;;;4130782;28;20418;-52
2023/07/24 07:31:25;;;;;;;1.70;1.60;;;20.80;96.20;;;;;;4131262;28;20068;-52
2023/07/24 07:33:29;;;;;;;6.63;2.10;;;20.90;95.80;;;;;;4131277;28;20171;-52
2023/07/24 07:35:31;;;;;;;4.05;1.92;;;21.00;95.70;;;;;;4131611;28;20053;-52
2023/07/24 07:37:33;;;;;;;3.35;1.85;;;21.20;95.90;;;;;;4131456;28;20069;-54
2023/07/24 07:39:36;;;;;;;3.03;1.85;;;21.20;95.00;;;;;;4130448;28;20490;-54
2023/07/24 07:41:38;;;;;;;3.90;1.52;;;21.30;94.90;;;;;;4131113;28;20121;-54
2023/07/24 07:43:42;;;;;;;2.88;1.73;;;21.20;94.90;;;;;;4113596;28;20410;-55
2023/07/24 07:45:44;;;;;;;2.70;1.88;;;21.30;94.70;;;;;;4131311;28;20054;-56
2023/07/24 07:47:46;;;;;;;4.13;1.50;;;21.30;94.50;;;;;;4131257;28;20054;-54
2023/07/24 07:49:48;;;;;;;3.60;1.75;;;21.40;94.50;;;;;;4130150;28;20406;-56
2023/07/24 07:51:50;;;;;;;4.25;1.85;;;21.40;94.20;;;;;;4131026;28;20070;-54
2023/07/24 07:53:53;;;;;;;4.03;1.80;;;21.40;94.20;;;;;;4131094;28;20101;-54
2023/07/24 07:55:56;;;;;;;9.77;1.85;;;21.60;94.10;;;;;;4131011;28;20051;-55
2023/07/24 07:57:58;;;;;;;4.10;1.90;;;21.60;94.10;;;;;;4130690;28;20105;-51
2023/07/24 08:00:03;;;;;;;5.93;1.60;;;21.80;93.60;;;;;;4130122;28;20086;-52
2023/07/24 08:02:05;;;;;;;3.38;1.52;;;21.70;94.00;;;;;;4132356;28;20517;-52
2023/07/24 08:04:08;;;;;;;4.40;1.80;;;21.70;93.70;;;;;;4134320;28;20050;-54
2023/07/24 08:06:10;;;;;;;7.25;1.50;;;21.60;93.40;;;;;;4134387;28;20096;-60
2023/07/24 08:08:12;;;;;;;2.30;1.42;;;21.50;93.50;;;;;;4134185;28;20125;-54
2023/07/24 08:10:16;;;;;;;2.97;1.88;;;21.50;93.80;;;;;;4133426;28;20125;-59
2023/07/24 08:12:18;;;;;;;4.37;1.87;;;21.60;93.40;;;;;;4133997;28;20043;-54
2023/07/24 08:14:20;;;;;;;5.25;2.05;;;21.60;93.50;;;;;;4134067;28;20425;-54
2023/07/24 08:16:24;;;;;;;1.98;1.52;;;21.60;93.00;;;;;;4134081;28;20125;-51
2023/07/24 08:18:26;;;;;;;2.80;1.88;;;21.50;92.70;;;;;;4116379;28;20078;-59
2023/07/24 08:20:28;;;;;;;1.77;1.40;;;21.60;93.10;;;;;;4133542;28;20401;-52
2023/07/24 08:22:30;;;;;;;2.72;1.70;;;21.40;92.50;;;;;;4133956;28;20070;-64
2023/07/24 08:24:34;;;;;;;3.53;1.80;;;21.50;92.90;;;;;;4116793;28;20049;-56
2023/07/24 08:26:38;;;;;;;3.30;1.85;;;21.50;93.20;;;;;;4133629;28;20093;-52
2023/07/24 08:28:42;;;;;;;3.17;1.92;;;21.80;92.90;;;;;;4133384;28;20047;-52
2023/07/24 08:30:44;;;;;;;2.93;1.70;;;21.70;92.20;;;;;;4133863;28;20078;-52
2023/07/24 08:32:50;;;;;;;3.60;1.80;;;21.80;92.40;;;;;;4133751;28;20050;-51
2023/07/24 08:34:52;;;;;;;7.72;3.42;;;21.90;92.20;;;;;;4133242;28;20409;-52
2023/07/24 08:36:54;;;;;;;3.78;1.92;;;22.00;92.20;;;;;;4133678;28;20493;-52
2023/07/24 08:38:56;;;;;;;4.75;2.38;;;22.20;92.30;;;;;;4133059;28;20084;-54
2023/07/24 08:41:03;;;;;;;5.47;2.00;;;22.20;91.70;;;;;;4133266;28;20077;-54
2023/07/24 08:43:06;;;;;;;3.17;1.77;;;22.20;91.30;;;;;;4133764;28;20074;-55
2023/07/24 08:45:12;;;;;;;2.67;1.45;;;22.10;91.20;;;;;;4133622;28;20489;-53
2023/07/24 08:47:15;;;;;;;3.28;1.38;;;22.00;90.70;;;;;;4133440;28;20046;-52
2023/07/24 08:49:19;;;;;;;2.42;1.48;;;22.00;90.50;;;;;;4124854;28;20207;-53
2023/07/24 08:51:22;;;;;;;5.40;1.40;;;22.00;90.90;;;;;;4132388;28;20097;-52
2023/07/24 08:53:25;;;;;;;4.30;1.50;;;22.00;91.20;;;;;;4133417;28;20554;-52
2023/07/24 08:55:27;;;;;;;3.92;1.65;;;22.00;91.20;;;;;;4133156;28;20142;-52
2023/07/24 08:57:30;;;;;;;3.55;1.83;;;21.90;90.70;;;;;;4133316;28;20120;-58
2023/07/24 08:59:32;;;;;;;4.75;1.65;;;22.00;90.90;;;;;;4137672;28;20058;-59
2023/07/24 09:01:34;;;;;;;5.75;1.73;;;22.10;90.80;;;;;;4149387;28;20169;-54
2023/07/24 09:03:36;;;;;;;4.53;1.50;;;22.30;90.70;;;;;;4134089;28;20054;-54
2023/07/24 09:05:40;;;;;;;7.60;1.90;;;22.40;90.40;;;;;;4133345;28;20050;-54
2023/07/24 09:07:44;;;;;;;3.03;1.73;;;22.60;90.50;;;;;;4116208;28;20050;-54
2023/07/24 09:09:49;;;;;;;7.07;1.83;;;22.50;89.40;;;;;;4132114;28;20054;-54
2023/07/24 09:11:53;;;;;;;4.40;1.60;;;22.60;89.60;;;;;;4133298;28;20406;-58
2023/07/24 09:13:55;;;;;;;3.22;1.63;;;22.70;89.20;;;;;;4114618;28;20050;-56
2023/07/24 09:15:59;;;;;;;6.28;1.50;;;22.80;88.80;;;;;;4115780;28;20047;-55
2023/07/24 09:18:01;;;;;;;2.53;1.50;;;22.80;88.10;;;;;;4133657;28;20174;-54
2023/07/24 09:20:06;;;;;;;4.28;1.60;;;22.70;87.70;;;;;;4132456;28;20046;-54
2023/07/24 09:22:14;;;;;;;6.38;1.60;;;22.90;87.20;;;;;;4133228;28;20098;-53
2023/07/24 09:24:21;;;;;;;4.38;1.52;;;22.90;86.50;;;;;;4132868;28;20077;-54
2023/07/24 09:26:23;;;;;;;3.05;1.90;;;23.00;86.40;;;;;;4133074;28;20054;-55
2023/07/24 09:28:25;;;;;;;1.95;1.30;;;23.00;86.10;;;;;;4132864;28;20054;-55
2023/07/24 09:30:27;;;;;;;2.95;1.60;;;23.30;86.60;;;;;;4132117;28;20054;-54
2023/07/24 09:32:34;;;;;;;7.55;1.92;;;23.60;86.90;;;;;;4132904;28;20052;-53
2023/07/24 09:34:42;;;;;;;2.70;1.55;;;23.60;84.00;;;;;;4115952;28;20057;-53
2023/07/24 09:36:44;;;;;;;3.35;1.83;;;23.30;84.90;;;;;;4132786;28;20050;-55
2023/07/24 09:38:47;;;;;;;4.72;1.50;;;23.00;84.10;;;;;;4132333;28;20046;-55
2023/07/24 09:40:53;;;;;;;1.88;1.45;;;22.80;85.50;;;;;;4132664;28;20056;-54
2023/07/24 09:42:55;;;;;;;4.25;1.50;;;22.80;86.10;;;;;;4132860;28;20048;-55
2023/07/24 09:45:17;;;;;;;2.42;1.60;;;22.70;85.60;;;;;;4132710;28;20146;-54
2023/07/24 09:47:19;;;;;;;3.25;1.67;;;22.50;87.60;;;;;;4115662;28;20097;-53
2023/07/24 09:49:24;;;;;;;2.22;1.30;;;22.60;87.10;;;;;;4131825;28;20050;-54
2023/07/24 09:51:30;;;;;;;5.25;1.90;;;22.60;87.10;;;;;;4132489;28;20197;-54
2023/07/24 09:53:37;;;;;;;3.65;1.70;;;22.50;87.40;;;;;;4132158;28;20058;-55
2023/07/24 09:55:47;;;;;;;4.18;1.50;;;22.70;87.30;;;;;;4132669;28;20057;-54
2023/07/24 09:57:53;;;;;;;6.38;1.88;;;22.80;86.00;;;;;;4132549;28;20050;-54
2023/07/24 09:59:56;;;;;;;2.55;1.50;;;23.10;87.40;;;;;;4131625;28;20046;-55
2023/07/24 10:01:59;;;;;;;3.67;1.73;;;23.30;86.90;;;;;;4132665;28;20046;-54
2023/07/24 10:04:03;;;;;;;3.72;1.52;;;23.50;87.40;;;;;;4132659;28;20154;-51
2023/07/24 10:06:05;;;;;;;4.80;1.60;;;23.70;86.30;;;;;;4132356;28;20417;-52
2023/07/24 10:08:08;;;;;;;1.58;1.08;;;23.80;85.90;;;;;;4132159;28;20132;-54
2023/07/24 10:10:15;;;;;;;4.65;1.42;;;23.80;85.20;;;;;;4131890;28;20484;-52
2023/07/24 10:12:27;;;;;;;3.03;1.50;;;23.90;84.10;;;;;;4132517;28;20087;-51
2023/07/24 10:14:35;;;;;;;2.75;1.42;;;23.80;83.90;;;;;;4132336;28;20481;-52
2023/07/24 10:16:38;;;;;;;3.92;1.48;;;24.00;83.80;;;;;;4132252;28;20047;-52
2023/07/24 10:18:44;;;;;;;3.92;1.73;;;23.90;83.00;;;;;;4132503;28;20050;-52
2023/07/24 10:20:46;;;;;;;3.28;1.70;;;23.70;83.40;;;;;;4131474;28;20073;-53
2023/07/24 10:22:48;;;;;;;8.48;1.83;;;23.50;83.60;;;;;;4131932;28;20107;-52
2023/07/24 10:24:55;;;;;;;3.38;1.48;;;23.30;84.10;;;;;;4131689;28;20057;-54
2023/07/24 10:26:57;;;;;;;3.03;1.60;;;23.30;85.10;;;;;;4132122;28;20137;-52
2023/07/24 10:29:01;;;;;;;4.00;1.75;;;23.10;84.80;;;;;;4131420;28;20073;-54
2023/07/24 10:31:08;;;;;;;4.38;1.30;;;23.00;85.30;;;;;;4132025;28;20081;-59
2023/07/24 10:33:13;;;;;;;2.60;1.65;;;23.00;85.00;;;;;;4131830;28;20052;-53
2023/07/24 10:35:17;;;;;;;4.07;1.40;;;23.20;85.40;;;;;;4131887;28;20043;-53
2023/07/24 10:37:19;;;;;;;4.23;1.90;;;23.20;84.30;;;;;;4113648;28;20122;-53
2023/07/24 10:39:22;;;;;;;3.92;1.70;;;23.20;85.80;;;;;;4131131;28;20081;-55